首页
METAR-TAF:

METAR-TAF

机场 :

Lynchburg Regional Airport (Preston Glenn Field)

林奇堡, 弗吉尼亚州, 美国

纬度: 37-19-15N, 经度: 079-12-24W, 海拔: 285米

当前天气观测

该预报发布于30分钟前的09:54 UTC
静风
温度 19°C
湿度 94%
气压 1019 hPa
能見度: 11.3公里
天空无云

METAR: KLYH 260954Z AUTO 00000KT 7SM CLR 19/18 A3009 RMK AO2 SLP177 T01890183

时间: 06:24 (10:24 UTC)

预报

该预报发布于27分钟前的09:57 UTC
预报有效从26日的 10点(UTC)到 27日的 06点(UTC)
风速节,风向
能見度: 8.0公里
散云层高于300英尺
散云层高于25000英尺
轻雾
短暂存在
从 26日的 10点(UTC)到 26日的 12点(UTC)
能見度: 1.6公里
多云层高于300英尺
轻雾
从 26日的 1300点(UTC)
风速7节,风向西
能見度: 10公里
散云层高于4000英尺
散云层高于25000英尺
从 26日的 1900点(UTC)
风速8节,风向西
能見度: 10公里
散云层高于4000英尺, 积雨云.
多云层高于10000英尺
附近有雷暴

TAF: KLYH 260957Z 2610/2706 00000KT 5SM BR SCT003 SCT250 TEMPO 2610/2612 1SM BR BKN003 FM261300 26007KT P6SM SCT040 SCT250 FM261900 27008KT P6SM VCTS SCT040CB BKN100

超过4000个机场的气象观测和天气预报(METAR&TAF报告)。

可查询的气象台以黄色和红色小点在地图上表示。

将鼠标移到小点上方,可查看气象台名称。

然后点击查看天气观测和预报。

如需切换地图:点击带黑十字的绿色按钮放大地图;点击带横线的绿色按钮缩小地图;或者点击绿色箭头查看邻近地区的地图。


METAR-TAF: